Time,TemperatureF,DewpointF,PressureIn,WindDirection,WindDirectionDegrees,WindSpeedMPH,WindSpeedGustMPH,Humidity,HourlyPrecipIn,Conditions,Clouds,dailyrainin,SoftwareType,DateUTC
2013-05-09 00:00:00,65.5,57.5,29.77,SSE,164,5.0,6.0,75,0.00,,,0.03,Custom v0.1,2013-05-09 05:00:00,
2013-05-09 00:05:00,66.1,57.7,29.76,South,176,3.0,3.0,74,0.01,,,0.00,Custom v0.1,2013-05-09 05:05:00,
2013-05-09 00:10:00,66.0,58.0,29.76,SSE,164,0.0,1.0,75,0.01,,,0.00,Custom v0.1,2013-05-09 05:10:00,
2013-05-09 00:15:00,65.6,58.3,29.76,South,186,0.0,0.0,77,0.01,,,0.00,Custom v0.1,2013-05-09 05:15:00,
2013-05-09 00:20:00,65.3,58.4,29.76,South,188,0.0,0.0,78,0.01,,,0.00,Custom v0.1,2013-05-09 05:20:00,
2013-05-09 00:25:00,65.3,58.4,29.76,SE,128,0.0,0.0,78,0.01,,,0.00,Custom v0.1,2013-05-09 05:25:00,
2013-05-09 00:35:00,67.8,57.8,29.76,SSE,154,0.0,0.0,70,0.01,,,0.00,Custom v0.1,2013-05-09 05:35:00,
2013-05-09 00:40:00,68.4,57.2,29.76,SSE,156,2.0,5.0,67,0.01,,,0.00,Custom v0.1,2013-05-09 05:40:00,
2013-05-09 00:45:00,68.6,57.4,29.76,South,169,5.0,5.0,67,0.01,,,0.00,Custom v0.1,2013-05-09 05:45:00,
2013-05-09 00:50:00,68.6,57.4,29.76,South,172,3.0,6.0,67,0.01,,,0.00,Custom v0.1,2013-05-09 05:50:00,
2013-05-09 01:00:00,68.3,57.5,29.76,SSE,168,0.0,0.0,68,0.01,,,0.00,Custom v0.1,2013-05-09 06:00:00,
2013-05-09 01:05:00,68.4,57.2,29.76,SE,142,2.0,2.0,67,0.00,,,0.00,Custom v0.1,2013-05-09 06:05:00,
2013-05-09 01:10:00,68.4,57.2,29.76,SSW,210,6.0,7.0,67,0.00,,,0.00,Custom v0.1,2013-05-09 06:10:00,
2013-05-09 01:20:00,68.1,57.7,29.76,SSW,199,0.0,0.0,69,0.00,,,0.00,Custom v0.1,2013-05-09 06:20:00,
2013-05-09 01:25:00,67.9,57.9,29.76,SW,216,1.0,1.0,70,0.00,,,0.00,Custom v0.1,2013-05-09 06:25:00,
2013-05-09 01:30:00,67.8,57.4,29.76,South,173,0.0,0.0,69,0.01,,,0.00,Custom v0.1,2013-05-09 06:30:00,
2013-05-09 01:35:00,67.6,57.6,29.76,SSW,203,2.0,10.0,70,0.00,,,0.00,Custom v0.1,2013-05-09 06:35:00,
2013-05-09 01:40:00,67.4,57.8,29.76,South,182,0.0,0.0,71,0.00,,,0.00,Custom v0.1,2013-05-09 06:40:00,
2013-05-09 01:45:00,67.1,57.9,29.76,SSW,202,6.0,6.0,72,0.00,,,0.00,Custom v0.1,2013-05-09 06:45:00,
2013-05-09 01:50:00,66.9,57.7,29.76,South,188,0.0,2.0,72,0.00,,,0.00,Custom v0.1,2013-05-09 06:50:00,
2013-05-09 01:55:00,66.6,57.8,29.76,West,281,0.0,0.0,73,0.00,,,0.00,Custom v0.1,2013-05-09 06:55:00,
2013-05-09 02:00:00,66.1,58.4,29.76,WNW,282,0.0,0.0,76,0.00,,,0.00,Custom v0.1,2013-05-09 07:00:00,
2013-05-09 02:05:00,65.5,58.2,29.78,NNW,333,0.0,0.0,77,0.00,,,0.00,Custom v0.1,2013-05-09 07:05:00,
2013-05-09 02:10:00,65.3,58.4,29.78,WNW,288,0.0,0.0,78,0.00,,,0.00,Custom v0.1,2013-05-09 07:10:00,
2013-05-09 02:15:00,65.0,58.1,29.78,WSW,245,0.0,0.0,78,0.00,,,0.00,Custom v0.1,2013-05-09 07:15:00,
2013-05-09 02:20:00,64.8,58.2,29.78,North,357,0.0,0.0,79,0.00,,,0.00,Custom v0.1,2013-05-09 07:20:00,
2013-05-09 02:25:00,64.7,58.5,29.78,North,353,0.0,0.0,80,0.00,,,0.00,Custom v0.1,2013-05-09 07:25:00,
2013-05-09 02:30:00,64.5,58.3,29.78,NW,315,0.0,0.0,80,0.00,,,0.00,Custom v0.1,2013-05-09 07:30:00,
2013-05-09 02:35:00,64.3,58.1,29.77,NW,315,0.0,0.0,80,0.00,,,0.00,Custom v0.1,2013-05-09 07:35:00,
2013-05-09 02:40:00,64.2,58.3,29.77,NNW,339,0.0,0.0,81,0.00,,,0.00,Custom v0.1,2013-05-09 07:40:00,
2013-05-09 02:45:00,64.0,58.1,29.77,NNW,340,0.0,0.0,81,0.00,,,0.00,Custom v0.1,2013-05-09 07:45:00,
2013-05-09 02:50:00,63.9,58.3,29.77,NNW,340,0.0,0.0,82,0.00,,,0.00,Custom v0.1,2013-05-09 07:50:00,
2013-05-09 03:00:00,63.4,58.5,29.77,NNW,341,0.0,0.0,84,0.00,,,0.00,Custom v0.1,2013-05-09 08:00:00,
2013-05-09 03:05:00,63.2,58.3,29.77,NE,36,0.0,0.0,84,0.00,,,0.00,Custom v0.1,2013-05-09 08:05:00,
2013-05-09 03:10:00,63.1,58.5,29.77,North,358,0.0,0.0,85,0.00,,,0.00,Custom v0.1,2013-05-09 08:10:00,
2013-05-09 03:15:00,62.7,58.1,29.77,North,0,0.0,0.0,85,0.00,,,0.00,Custom v0.1,2013-05-09 08:15:00,
2013-05-09 03:20:00,62.6,58.4,29.77,North,0,0.0,0.0,86,0.00,,,0.00,Custom v0.1,2013-05-09 08:20:00,
2013-05-09 03:25:00,62.4,58.5,29.77,North,1,0.0,0.0,87,0.00,,,0.00,Custom v0.1,2013-05-09 08:25:00,
2013-05-09 03:30:00,62.3,58.7,29.77,North,4,0.0,0.0,88,0.00,,,0.00,Custom v0.1,2013-05-09 08:30:00,
2013-05-09 03:35:00,62.1,58.5,29.76,North,4,0.0,0.0,88,0.00,,,0.00,Custom v0.1,2013-05-09 08:35:00,
2013-05-09 03:40:00,62.1,58.5,29.76,North,4,0.0,0.0,88,0.00,,,0.00,Custom v0.1,2013-05-09 08:40:00,
2013-05-09 03:45:00,62.0,58.4,29.76,North,4,0.0,0.0,88,0.00,,,0.00,Custom v0.1,2013-05-09 08:45:00,
2013-05-09 03:50:00,61.8,58.5,29.76,North,4,0.0,0.0,89,0.00,,,0.00,Custom v0.1,2013-05-09 08:50:00,
2013-05-09 03:55:00,61.8,58.5,29.76,North,4,0.0,0.0,89,0.00,,,0.00,Custom v0.1,2013-05-09 08:55:00,
2013-05-09 04:00:00,61.6,58.3,29.76,North,7,0.0,0.0,89,0.00,,,0.00,Custom v0.1,2013-05-09 09:00:00,
2013-05-09 04:05:00,61.6,58.3,29.76,North,7,0.0,0.0,89,0.00,,,0.00,Custom v0.1,2013-05-09 09:05:00,
2013-05-09 04:10:00,61.6,58.3,29.76,North,7,0.0,0.0,89,0.00,,,0.00,Custom v0.1,2013-05-09 09:10:00,
2013-05-09 04:15:00,61.6,58.3,29.76,North,7,0.0,0.0,89,0.00,,,0.00,Custom v0.1,2013-05-09 09:15:00,
2013-05-09 04:20:00,61.5,58.5,29.76,North,7,0.0,0.0,90,0.00,,,0.00,Custom v0.1,2013-05-09 09:20:00,
2013-05-09 04:25:00,61.5,58.5,29.76,North,7,0.0,0.0,90,0.00,,,0.00,Custom v0.1,2013-05-09 09:25:00,
2013-05-09 04:30:00,61.3,58.3,29.76,North,5,0.0,0.0,90,0.00,,,0.00,Custom v0.1,2013-05-09 09:30:00,
2013-05-09 04:35:00,61.3,58.3,29.75,North,7,0.0,0.0,90,0.00,,,0.00,Custom v0.1,2013-05-09 09:35:00,
2013-05-09 04:40:00,61.2,58.2,29.75,North,7,0.0,0.0,90,0.00,,,0.00,Custom v0.1,2013-05-09 09:40:00,
2013-05-09 04:45:00,61.2,58.5,29.75,North,7,0.0,0.0,91,0.00,,,0.00,Custom v0.1,2013-05-09 09:45:00,
2013-05-09 04:50:00,61.0,58.3,29.75,North,7,0.0,0.0,91,0.00,,,0.00,Custom v0.1,2013-05-09 09:50:00,
2013-05-09 04:55:00,61.0,58.3,29.75,North,7,0.0,0.0,91,0.00,,,0.00,Custom v0.1,2013-05-09 09:55:00,
2013-05-09 05:00:00,60.9,58.2,29.75,North,4,0.0,0.0,91,0.00,,,0.00,Custom v0.1,2013-05-09 10:00:00,
2013-05-09 05:05:00,60.9,58.2,29.74,North,4,0.0,0.0,91,0.00,,,0.00,Custom v0.1,2013-05-09 10:05:00,
2013-05-09 05:10:00,60.7,58.0,29.74,North,4,0.0,0.0,91,0.00,,,0.00,Custom v0.1,2013-05-09 10:10:00,
2013-05-09 05:15:00,60.7,58.0,29.74,North,4,0.0,0.0,91,0.00,,,0.00,Custom v0.1,2013-05-09 10:15:00,
2013-05-09 05:20:00,60.7,58.0,29.74,North,4,0.0,0.0,91,0.00,,,0.00,Custom v0.1,2013-05-09 10:20:00,
2013-05-09 05:25:00,60.5,57.8,29.74,North,4,0.0,0.0,91,0.00,,,0.00,Custom v0.1,2013-05-09 10:25:00,
2013-05-09 05:30:00,60.5,57.8,29.74,North,4,0.0,0.0,91,0.00,,,0.00,Custom v0.1,2013-05-09 10:30:00,
2013-05-09 05:35:00,60.4,58.0,29.74,North,4,0.0,0.0,92,0.00,,,0.00,Custom v0.1,2013-05-09 10:35:00,
2013-05-09 05:40:00,60.4,58.0,29.74,North,4,0.0,0.0,92,0.00,,,0.00,Custom v0.1,2013-05-09 10:40:00,
2013-05-09 05:45:00,60.4,58.0,29.74,North,4,0.0,0.0,92,0.00,,,0.00,Custom v0.1,2013-05-09 10:45:00,
2013-05-09 05:50:00,60.4,58.0,29.74,North,4,0.0,0.0,92,0.00,,,0.00,Custom v0.1,2013-05-09 10:50:00,
2013-05-09 05:55:00,60.2,57.8,29.74,North,4,0.0,0.0,92,0.00,,,0.00,Custom v0.1,2013-05-09 10:55:00,
2013-05-09 06:00:00,60.2,57.8,29.74,North,4,0.0,0.0,92,0.00,,,0.00,Custom v0.1,2013-05-09 11:00:00,
2013-05-09 06:05:00,60.2,57.8,29.74,North,4,0.0,0.0,92,0.00,,,0.00,Custom v0.1,2013-05-09 11:05:00,
2013-05-09 06:10:00,60.1,57.7,29.74,North,4,0.0,0.0,92,0.00,,,0.00,Custom v0.1,2013-05-09 11:10:00,
2013-05-09 06:15:00,60.1,57.7,29.74,North,4,0.0,0.0,92,0.00,,,0.00,Custom v0.1,2013-05-09 11:15:00,
2013-05-09 06:20:00,60.1,57.7,29.73,North,4,0.0,0.0,92,0.00,,,0.00,Custom v0.1,2013-05-09 11:20:00,
2013-05-09 06:25:00,59.9,57.5,29.73,North,4,0.0,0.0,92,0.00,,,0.00,Custom v0.1,2013-05-09 11:25:00,
2013-05-09 06:30:00,59.8,57.4,29.73,North,4,0.0,0.0,92,0.00,,,0.00,Custom v0.1,2013-05-09 11:30:00,
2013-05-09 06:35:00,59.8,57.7,29.74,North,4,0.0,0.0,93,0.00,,,0.00,Custom v0.1,2013-05-09 11:35:00,
2013-05-09 06:40:00,59.8,57.7,29.74,North,4,0.0,0.0,93,0.00,,,0.00,Custom v0.1,2013-05-09 11:40:00,
2013-05-09 06:45:00,59.9,57.8,29.74,North,4,0.0,0.0,93,0.00,,,0.00,Custom v0.1,2013-05-09 11:45:00,
2013-05-09 06:50:00,59.9,57.8,29.74,North,11,0.0,0.0,93,0.00,,,0.00,Custom v0.1,2013-05-09 11:50:00,
2013-05-09 06:55:00,59.8,57.7,29.74,NE,48,0.0,0.0,93,0.00,,,0.00,Custom v0.1,2013-05-09 11:55:00,
2013-05-09 07:00:00,59.6,57.5,29.74,NE,48,0.0,0.0,93,0.00,,,0.00,Custom v0.1,2013-05-09 12:00:00,
2013-05-09 07:05:00,59.6,57.5,29.73,NE,48,0.0,0.0,93,0.00,,,0.00,Custom v0.1,2013-05-09 12:05:00,
2013-05-09 07:10:00,59.5,57.4,29.73,NE,48,0.0,0.0,93,0.00,,,0.00,Custom v0.1,2013-05-09 12:10:00,
2013-05-09 07:15:00,59.5,57.4,29.73,NE,48,0.0,0.0,93,0.00,,,0.00,Custom v0.1,2013-05-09 12:15:00,
2013-05-09 07:20:00,59.5,57.7,29.73,NE,48,0.0,0.0,94,0.00,,,0.00,Custom v0.1,2013-05-09 12:20:00,
2013-05-09 07:30:00,59.6,57.8,29.73,NE,48,0.0,0.0,94,0.00,,,0.00,Custom v0.1,2013-05-09 12:30:00,
2013-05-09 07:35:00,59.8,58.0,29.73,NE,48,0.0,0.0,94,0.00,,,0.00,Custom v0.1,2013-05-09 12:35:00,
2013-05-09 07:40:00,59.9,58.1,29.73,NE,48,0.0,0.0,94,0.00,,,0.00,Custom v0.1,2013-05-09 12:40:00,
2013-05-09 07:45:00,60.1,58.3,29.73,NE,48,0.0,0.0,94,0.00,,,0.00,Custom v0.1,2013-05-09 12:45:00,
2013-05-09 07:50:00,60.2,58.4,29.74,NE,48,0.0,0.0,94,0.00,,,0.00,Custom v0.1,2013-05-09 12:50:00,
2013-05-09 07:55:00,60.2,58.4,29.74,NE,48,0.0,0.0,94,0.00,,,0.00,Custom v0.1,2013-05-09 12:55:00,
2013-05-09 08:00:00,60.2,58.4,29.74,NE,48,0.0,0.0,94,0.00,,,0.00,Custom v0.1,2013-05-09 13:00:00,
2013-05-09 08:05:00,60.2,58.4,29.74,NE,42,0.0,0.0,94,0.00,,,0.00,Custom v0.1,2013-05-09 13:05:00,
2013-05-09 08:10:00,60.2,58.4,29.74,NE,42,0.0,0.0,94,0.00,,,0.00,Custom v0.1,2013-05-09 13:10:00,
2013-05-09 08:20:00,60.4,58.9,29.76,NE,44,0.0,0.0,95,0.01,,,0.01,Custom v0.1,2013-05-09 13:20:00,
2013-05-09 08:25:00,60.5,59.0,29.76,NE,44,0.0,0.0,95,0.01,,,0.01,Custom v0.1,2013-05-09 13:25:00,
2013-05-09 08:30:00,60.7,58.9,29.76,SW,219,0.0,0.0,94,0.01,,,0.01,Custom v0.1,2013-05-09 13:30:00,
2013-05-09 08:35:00,60.9,59.1,29.76,SW,220,0.0,0.0,94,0.01,,,0.01,Custom v0.1,2013-05-09 13:35:00,
2013-05-09 08:45:00,61.5,59.4,29.76,SW,217,0.0,0.0,93,0.01,,,0.01,Custom v0.1,2013-05-09 13:45:00,
2013-05-09 08:50:00,61.5,59.4,29.75,SW,217,0.0,0.0,93,0.01,,,0.01,Custom v0.1,2013-05-09 13:50:00,
2013-05-09 08:55:00,61.6,59.2,29.75,SW,219,0.0,0.0,92,0.01,,,0.01,Custom v0.1,2013-05-09 13:55:00,
2013-05-09 09:00:00,61.8,59.4,29.75,SW,217,0.0,0.0,92,0.01,,,0.01,Custom v0.1,2013-05-09 14:00:00,
2013-05-09 09:05:00,62.0,59.6,29.74,SW,217,0.0,0.0,92,0.01,,,0.01,Custom v0.1,2013-05-09 14:05:00,
2013-05-09 09:15:00,62.3,59.6,29.74,SSW,206,0.0,0.0,91,0.01,,,0.01,Custom v0.1,2013-05-09 14:15:00,
2013-05-09 09:20:00,62.4,59.4,29.75,SW,226,0.0,0.0,90,0.00,,,0.01,Custom v0.1,2013-05-09 14:20:00,
2013-05-09 09:25:00,62.6,59.6,29.75,SW,227,0.0,0.0,90,0.00,,,0.01,Custom v0.1,2013-05-09 14:25:00,
2013-05-09 09:30:00,62.7,59.4,29.75,WSW,243,0.0,0.0,89,0.00,,,0.01,Custom v0.1,2013-05-09 14:30:00,
2013-05-09 09:35:00,62.9,59.6,29.75,WSW,241,0.0,0.0,89,0.00,,,0.01,Custom v0.1,2013-05-09 14:35:00,
2013-05-09 09:40:00,63.1,59.8,29.75,WSW,241,0.0,0.0,89,0.00,,,0.01,Custom v0.1,2013-05-09 14:40:00,
2013-05-09 09:45:00,63.1,59.8,29.75,WSW,241,0.0,0.0,89,0.00,,,0.01,Custom v0.1,2013-05-09 14:45:00,
2013-05-09 09:50:00,63.2,59.9,29.75,WSW,241,0.0,0.0,89,0.00,,,0.01,Custom v0.1,2013-05-09 14:50:00,
2013-05-09 09:55:00,63.2,59.9,29.75,SW,223,0.0,0.0,89,0.00,,,0.01,Custom v0.1,2013-05-09 14:55:00,
2013-05-09 10:00:00,63.4,60.1,29.75,SW,223,0.0,0.0,89,0.00,,,0.01,Custom v0.1,2013-05-09 15:00:00,
2013-05-09 10:05:00,63.5,60.2,29.76,SW,223,0.0,0.0,89,0.00,,,0.01,Custom v0.1,2013-05-09 15:05:00,
2013-05-09 10:10:00,63.7,60.1,29.76,WSW,257,0.0,0.0,88,0.00,,,0.01,Custom v0.1,2013-05-09 15:10:00,
2013-05-09 10:15:00,63.9,60.3,29.76,WSW,257,0.0,0.0,88,0.00,,,0.01,Custom v0.1,2013-05-09 15:15:00,
2013-05-09 10:20:00,64.0,60.4,29.77,WSW,245,0.0,0.0,88,0.00,,,0.01,Custom v0.1,2013-05-09 15:20:00,
2013-05-09 10:25:00,64.3,60.3,29.77,SSW,209,0.0,0.0,87,0.00,,,0.01,Custom v0.1,2013-05-09 15:25:00,
2013-05-09 10:30:00,64.5,60.2,29.77,WSW,240,0.0,0.0,86,0.00,,,0.01,Custom v0.1,2013-05-09 15:30:00,
2013-05-09 10:35:00,64.8,60.5,29.77,SW,226,0.0,0.0,86,0.00,,,0.01,Custom v0.1,2013-05-09 15:35:00,
2013-05-09 10:40:00,65.3,60.7,29.77,SSW,196,0.0,0.0,85,0.00,,,0.01,Custom v0.1,2013-05-09 15:40:00,
2013-05-09 10:45:00,65.8,61.2,29.77,WSW,257,7.0,7.0,85,0.00,,,0.01,Custom v0.1,2013-05-09 15:45:00,
2013-05-09 10:50:00,65.8,60.9,29.77,WSW,240,0.0,0.0,84,0.00,,,0.01,Custom v0.1,2013-05-09 15:50:00,
2013-05-09 10:55:00,66.1,60.8,29.77,West,268,0.0,0.0,83,0.00,,,0.01,Custom v0.1,2013-05-09 15:55:00,
2013-05-09 11:00:00,66.3,60.7,29.77,South,182,3.0,3.0,82,0.00,,,0.01,Custom v0.1,2013-05-09 16:00:00,
2013-05-09 11:05:00,66.8,60.5,29.77,WSW,237,0.0,0.0,80,0.00,,,0.01,Custom v0.1,2013-05-09 16:05:00,
2013-05-09 11:10:00,67.3,61.0,29.77,SW,230,0.0,0.0,80,0.00,,,0.01,Custom v0.1,2013-05-09 16:10:00,
2013-05-09 11:15:00,67.6,61.3,29.77,SW,226,0.0,0.0,80,0.00,,,0.01,Custom v0.1,2013-05-09 16:15:00,
2013-05-09 11:20:00,67.9,61.6,29.77,SW,234,0.0,0.0,80,0.00,,,0.01,Custom v0.1,2013-05-09 16:20:00,
2013-05-09 11:25:00,68.4,61.4,29.77,SW,236,7.0,7.0,78,0.00,,,0.01,Custom v0.1,2013-05-09 16:25:00,
2013-05-09 11:30:00,68.4,61.4,29.77,WSW,254,3.0,3.0,78,0.00,,,0.01,Custom v0.1,2013-05-09 16:30:00,
2013-05-09 11:35:00,68.9,61.5,29.76,SSE,154,0.0,0.0,77,0.00,,,0.01,Custom v0.1,2013-05-09 16:35:00,
2013-05-09 11:40:00,69.6,61.1,29.76,SSE,158,0.0,5.0,74,0.00,,,0.01,Custom v0.1,2013-05-09 16:40:00,
2013-05-09 11:45:00,69.9,61.4,29.76,SSE,148,0.0,0.0,74,0.00,,,0.01,Custom v0.1,2013-05-09 16:45:00,
2013-05-09 11:50:00,70.8,61.5,29.75,WSW,258,0.0,0.0,72,0.00,,,0.01,Custom v0.1,2013-05-09 16:50:00,
2013-05-09 11:55:00,70.6,61.3,29.75,NW,305,5.0,6.0,72,0.00,,,0.01,Custom v0.1,2013-05-09 16:55:00,
2013-05-09 12:00:00,70.4,60.7,29.75,West,274,2.0,2.0,71,0.00,,,0.01,Custom v0.1,2013-05-09 17:00:00,
2013-05-09 12:05:00,70.9,60.0,29.75,SSW,192,1.0,1.0,68,0.00,,,0.01,Custom v0.1,2013-05-09 17:05:00,
2013-05-09 12:10:00,71.5,60.6,29.75,SW,230,0.0,4.0,68,0.00,,,0.01,Custom v0.1,2013-05-09 17:10:00,
2013-05-09 12:15:00,71.6,60.7,29.75,WSW,245,0.0,0.0,68,0.00,,,0.01,Custom v0.1,2013-05-09 17:15:00,
2013-05-09 12:20:00,72.0,60.2,29.75,West,268,5.0,7.0,66,0.00,,,0.01,Custom v0.1,2013-05-09 17:20:00,
2013-05-09 12:25:00,72.0,59.8,29.75,SSW,206,6.0,6.0,65,0.00,,,0.01,Custom v0.1,2013-05-09 17:25:00,
2013-05-09 12:30:00,72.0,60.2,29.75,SW,233,0.0,0.0,66,0.00,,,0.01,Custom v0.1,2013-05-09 17:30:00,
2013-05-09 12:35:00,72.7,58.2,29.75,WSW,255,4.0,4.0,60,0.00,,,0.01,Custom v0.1,2013-05-09 17:35:00,
2013-05-09 12:40:00,72.8,58.8,29.75,WNW,292,0.0,6.0,61,0.00,,,0.01,Custom v0.1,2013-05-09 17:40:00,
2013-05-09 12:45:00,72.7,59.6,29.75,SW,231,1.0,6.0,63,0.00,,,0.01,Custom v0.1,2013-05-09 17:45:00,
2013-05-09 12:50:00,72.8,59.7,29.75,West,268,0.0,0.0,63,0.00,,,0.01,Custom v0.1,2013-05-09 17:50:00,
2013-05-09 12:55:00,73.5,59.4,29.75,SW,220,5.0,5.0,61,0.00,,,0.01,Custom v0.1,2013-05-09 17:55:00,
2013-05-09 13:00:00,73.7,59.6,29.75,West,265,5.0,10.0,61,0.00,,,0.01,Custom v0.1,2013-05-09 18:00:00,
2013-05-09 13:05:00,73.5,59.4,29.74,WSW,241,2.0,2.0,61,0.00,,,0.01,Custom v0.1,2013-05-09 18:05:00,
2013-05-09 13:10:00,73.5,58.5,29.74,West,272,3.0,13.0,59,0.00,,,0.01,Custom v0.1,2013-05-09 18:10:00,
2013-05-09 13:15:00,73.9,57.9,29.74,SW,220,6.0,8.0,57,0.00,,,0.01,Custom v0.1,2013-05-09 18:15:00,
2013-05-09 13:25:00,74.7,58.1,29.75,SW,227,3.0,5.0,56,0.00,,,0.01,Custom v0.1,2013-05-09 18:25:00,
2013-05-09 13:35:00,74.6,59.0,29.75,SW,234,0.0,0.0,58,0.00,,,0.01,Custom v0.1,2013-05-09 18:35:00,
2013-05-09 13:40:00,75.4,56.7,29.75,SW,226,0.0,0.0,52,0.00,,,0.01,Custom v0.1,2013-05-09 18:40:00,
2013-05-09 13:45:00,75.8,54.2,29.75,SW,220,5.0,5.0,47,0.00,,,0.01,Custom v0.1,2013-05-09 18:45:00,
2013-05-09 13:50:00,76.3,55.2,29.74,West,269,2.0,2.0,48,0.00,,,0.01,Custom v0.1,2013-05-09 18:50:00,
2013-05-09 13:55:00,76.0,56.1,29.74,WNW,282,2.0,2.0,50,0.00,,,0.01,Custom v0.1,2013-05-09 18:55:00,
2013-05-09 14:00:00,75.6,57.4,29.74,SW,231,1.0,2.0,53,0.00,,,0.01,Custom v0.1,2013-05-09 19:00:00,
2013-05-09 14:10:00,75.8,58.1,29.73,West,271,12.0,12.0,54,0.00,,,0.01,Custom v0.1,2013-05-09 19:10:00,
2013-05-09 14:15:00,75.3,57.7,29.73,SW,234,11.0,11.0,54,0.00,,,0.01,Custom v0.1,2013-05-09 19:15:00,
2013-05-09 14:20:00,74.9,57.3,29.73,West,262,5.0,5.0,54,0.00,,,0.01,Custom v0.1,2013-05-09 19:20:00,
2013-05-09 14:30:00,74.4,57.3,29.73,WSW,257,0.0,2.0,55,0.00,,,0.01,Custom v0.1,2013-05-09 19:30:00,
2013-05-09 14:35:00,74.0,59.0,29.73,WSW,240,0.0,2.0,59,0.01,,,0.02,Custom v0.1,2013-05-09 19:35:00,
2013-05-09 14:40:00,72.0,61.1,29.73,NW,308,6.0,6.0,68,0.04,,,0.05,Custom v0.1,2013-05-09 19:40:00,
2013-05-09 14:45:00,69.9,61.0,29.73,West,271,0.0,2.0,73,0.06,,,0.07,Custom v0.1,2013-05-09 19:45:00,
2013-05-09 14:50:00,69.9,62.8,29.73,West,271,0.0,2.0,78,0.06,,,0.07,Custom v0.1,2013-05-09 19:50:00,
2013-05-09 14:55:00,70.6,63.5,29.73,West,269,0.0,2.0,78,0.06,,,0.07,Custom v0.1,2013-05-09 19:55:00,
2013-05-09 15:00:00,72.0,61.5,29.73,WNW,286,1.0,2.0,69,0.06,,,0.07,Custom v0.1,2013-05-09 20:00:00,
2013-05-09 15:05:00,73.5,61.7,29.72,WNW,300,13.0,13.0,66,0.06,,,0.07,Custom v0.1,2013-05-09 20:05:00,
2013-05-09 15:10:00,74.6,59.5,29.72,West,275,3.0,3.0,59,0.06,,,0.07,Custom v0.1,2013-05-09 20:10:00,
2013-05-09 15:15:00,75.1,58.0,29.72,West,275,10.0,10.0,55,0.06,,,0.07,Custom v0.1,2013-05-09 20:15:00,
2013-05-09 15:20:00,75.3,59.2,29.73,West,272,0.0,2.0,57,0.06,,,0.07,Custom v0.1,2013-05-09 20:20:00,
2013-05-09 15:25:00,75.4,57.7,29.73,WSW,255,11.0,11.0,54,0.06,,,0.07,Custom v0.1,2013-05-09 20:25:00,
2013-05-09 15:30:00,75.4,57.2,29.73,WSW,252,13.0,13.0,53,0.06,,,0.07,Custom v0.1,2013-05-09 20:30:00,
2013-05-09 15:35:00,75.4,57.2,29.73,NW,317,7.0,7.0,53,0.05,,,0.07,Custom v0.1,2013-05-09 20:35:00,
2013-05-09 15:40:00,75.1,58.0,29.73,WSW,258,0.0,2.0,55,0.02,,,0.07,Custom v0.1,2013-05-09 20:40:00,
2013-05-09 15:45:00,74.6,58.0,29.73,WNW,289,0.0,2.0,56,0.00,,,0.07,Custom v0.1,2013-05-09 20:45:00,
2013-05-09 15:50:00,74.2,57.1,29.73,WSW,248,0.0,2.0,55,0.00,,,0.07,Custom v0.1,2013-05-09 20:50:00,
2013-05-09 15:55:00,74.2,57.7,29.73,WSW,237,0.0,2.0,56,0.00,,,0.07,Custom v0.1,2013-05-09 20:55:00,
2013-05-09 16:00:00,74.4,57.3,29.73,WSW,255,0.0,2.0,55,0.00,,,0.07,Custom v0.1,2013-05-09 21:00:00,
2013-05-09 16:05:00,74.7,57.6,29.73,WSW,241,7.0,7.0,55,0.00,,,0.07,Custom v0.1,2013-05-09 21:05:00,
2013-05-09 16:10:00,74.7,57.6,29.73,SW,234,0.0,2.0,55,0.00,,,0.07,Custom v0.1,2013-05-09 21:10:00,
2013-05-09 16:15:00,74.6,57.5,29.73,WSW,257,5.0,5.0,55,0.00,,,0.07,Custom v0.1,2013-05-09 21:15:00,
2013-05-09 16:20:00,74.6,57.5,29.73,SW,231,9.0,9.0,55,0.00,,,0.07,Custom v0.1,2013-05-09 21:20:00,
2013-05-09 16:25:00,74.6,57.5,29.73,SSW,210,0.0,2.0,55,0.00,,,0.07,Custom v0.1,2013-05-09 21:25:00,
2013-05-09 16:30:00,74.2,56.6,29.73,West,268,0.0,2.0,54,0.00,,,0.07,Custom v0.1,2013-05-09 21:30:00,
2013-05-09 16:35:00,73.7,56.7,29.74,WSW,255,11.0,11.0,55,0.00,,,0.07,Custom v0.1,2013-05-09 21:35:00,
2013-05-09 16:40:00,73.3,58.3,29.74,West,274,0.0,2.0,59,0.00,,,0.07,Custom v0.1,2013-05-09 21:40:00,
2013-05-09 16:45:00,73.0,58.5,29.74,WSW,247,0.0,2.0,60,0.00,,,0.07,Custom v0.1,2013-05-09 21:45:00,
2013-05-09 16:50:00,72.7,58.7,29.73,WSW,255,0.0,2.0,61,0.00,,,0.07,Custom v0.1,2013-05-09 21:50:00,
2013-05-09 16:55:00,72.5,58.5,29.73,WSW,255,0.0,2.0,61,0.00,,,0.07,Custom v0.1,2013-05-09 21:55:00,
2013-05-09 17:00:00,71.3,59.6,29.73,West,260,0.0,0.0,66,0.05,,,0.12,Custom v0.1,2013-05-09 22:00:00,
2013-05-09 17:05:00,68.3,60.6,29.75,SSW,206,0.0,1.0,76,0.08,,,0.15,Custom v0.1,2013-05-09 22:05:00,
2013-05-09 17:10:00,65.6,61.0,29.75,SW,226,0.0,6.0,85,0.18,,,0.25,Custom v0.1,2013-05-09 22:10:00,
2013-05-09 17:15:00,64.5,60.9,29.75,SSW,202,0.0,0.0,88,0.26,,,0.33,Custom v0.1,2013-05-09 22:15:00,
2013-05-09 17:20:00,63.7,60.1,29.75,SW,233,0.0,2.0,88,0.28,,,0.35,Custom v0.1,2013-05-09 22:20:00,
2013-05-09 17:25:00,63.4,59.5,29.75,SSW,204,0.0,0.0,87,0.28,,,0.35,Custom v0.1,2013-05-09 22:25:00,
2013-05-09 17:30:00,63.9,60.3,29.75,WSW,248,0.0,0.0,88,0.29,,,0.36,Custom v0.1,2013-05-09 22:30:00,
2013-05-09 17:35:00,64.3,60.3,29.75,WSW,252,0.0,0.0,87,0.29,,,0.36,Custom v0.1,2013-05-09 22:35:00,
2013-05-09 17:40:00,64.5,60.9,29.75,WSW,252,0.0,0.0,88,0.29,,,0.36,Custom v0.1,2013-05-09 22:40:00,
2013-05-09 17:45:00,64.3,60.7,29.75,WSW,237,0.0,0.0,88,0.29,,,0.36,Custom v0.1,2013-05-09 22:45:00,
2013-05-09 17:50:00,64.3,61.0,29.77,West,271,3.0,5.0,89,0.29,,,0.36,Custom v0.1,2013-05-09 22:50:00,
2013-05-09 17:55:00,64.2,60.9,29.77,WNW,302,0.0,0.0,89,0.31,,,0.38,Custom v0.1,2013-05-09 22:55:00,
2013-05-09 18:00:00,64.0,60.7,29.77,WNW,302,0.0,0.0,89,0.26,,,0.38,Custom v0.1,2013-05-09 23:00:00,
2013-05-09 18:05:00,63.9,60.6,29.76,NW,315,1.0,1.0,89,0.24,,,0.39,Custom v0.1,2013-05-09 23:05:00,
2013-05-09 18:10:00,63.5,59.9,29.76,WNW,292,0.0,0.0,88,0.14,,,0.39,Custom v0.1,2013-05-09 23:10:00,
2013-05-09 18:15:00,63.5,60.2,29.76,WNW,291,0.0,0.0,89,0.06,,,0.39,Custom v0.1,2013-05-09 23:15:00,
2013-05-09 18:20:00,63.4,60.1,29.76,WNW,293,0.0,0.0,89,0.04,,,0.39,Custom v0.1,2013-05-09 23:20:00,
2013-05-09 18:25:00,63.4,60.4,29.76,WNW,299,0.0,0.0,90,0.04,,,0.39,Custom v0.1,2013-05-09 23:25:00,
2013-05-09 18:30:00,63.4,60.4,29.76,WNW,300,0.0,0.0,90,0.03,,,0.39,Custom v0.1,2013-05-09 23:30:00,
2013-05-09 18:35:00,63.4,60.7,29.76,WNW,299,0.0,0.0,91,0.03,,,0.39,Custom v0.1,2013-05-09 23:35:00,
2013-05-09 18:40:00,63.4,60.7,29.76,WNW,300,0.0,0.0,91,0.03,,,0.39,Custom v0.1,2013-05-09 23:40:00,
2013-05-09 18:45:00,63.7,61.3,29.76,WNW,300,0.0,0.0,92,0.03,,,0.39,Custom v0.1,2013-05-09 23:45:00,
2013-05-09 18:50:00,63.7,61.3,29.76,WNW,299,0.0,0.0,92,0.03,,,0.39,Custom v0.1,2013-05-09 23:50:00,
2013-05-09 18:55:00,63.5,61.1,29.76,WNW,300,0.0,0.0,92,0.01,,,0.39,Custom v0.1,2013-05-09 23:55:00,
2013-05-09 19:00:00,63.5,61.4,29.76,WNW,300,0.0,0.0,93,0.01,,,0.39,Custom v0.1,2013-05-10 00:00:00,
2013-05-09 19:05:00,63.5,61.4,29.74,WNW,299,0.0,0.0,93,0.00,,,0.39,Custom v0.1,2013-05-10 00:05:00,
2013-05-09 19:10:00,63.7,61.9,29.74,WNW,299,0.0,0.0,94,0.00,,,0.39,Custom v0.1,2013-05-10 00:10:00,
2013-05-09 19:15:00,63.7,61.9,29.74,WNW,300,0.0,0.0,94,0.00,,,0.39,Custom v0.1,2013-05-10 00:15:00,
2013-05-09 19:25:00,63.7,61.9,29.75,WNW,300,0.0,0.0,94,0.00,,,0.39,Custom v0.1,2013-05-10 00:25:00,
2013-05-09 19:30:00,63.5,61.7,29.75,WNW,299,0.0,0.0,94,0.00,,,0.39,Custom v0.1,2013-05-10 00:30:00,
2013-05-09 19:35:00,63.4,61.6,29.75,WNW,300,0.0,0.0,94,0.00,,,0.39,Custom v0.1,2013-05-10 00:35:00,
2013-05-09 19:40:00,63.2,61.4,29.75,WNW,300,0.0,0.0,94,0.00,,,0.39,Custom v0.1,2013-05-10 00:40:00,
2013-05-09 19:45:00,63.2,61.4,29.75,WNW,300,0.0,0.0,94,0.00,,,0.39,Custom v0.1,2013-05-10 00:45:00,
2013-05-09 19:55:00,62.9,61.1,29.75,WNW,300,0.0,0.0,94,0.00,,,0.39,Custom v0.1,2013-05-10 00:55:00,
2013-05-09 20:00:00,62.7,61.2,29.75,WNW,300,0.0,0.0,95,0.00,,,0.39,Custom v0.1,2013-05-10 01:00:00,
2013-05-09 20:05:00,62.7,61.2,29.76,WNW,300,0.0,0.0,95,0.00,,,0.39,Custom v0.1,2013-05-10 01:05:00,
2013-05-09 20:10:00,62.6,61.1,29.76,WNW,299,0.0,0.0,95,0.00,,,0.39,Custom v0.1,2013-05-10 01:10:00,
2013-05-09 20:15:00,62.6,61.1,29.76,WNW,300,0.0,0.0,95,0.00,,,0.39,Custom v0.1,2013-05-10 01:15:00,
2013-05-09 20:25:00,62.6,61.4,29.76,WNW,300,0.0,0.0,96,0.00,,,0.39,Custom v0.1,2013-05-10 01:25:00,
2013-05-09 20:30:00,62.4,61.2,29.76,WNW,300,0.0,0.0,96,0.00,,,0.39,Custom v0.1,2013-05-10 01:30:00,
2013-05-09 20:35:00,62.3,61.1,29.76,WNW,299,0.0,0.0,96,0.00,,,0.39,Custom v0.1,2013-05-10 01:35:00,
2013-05-09 20:40:00,62.1,60.9,29.76,WNW,298,0.0,0.0,96,0.00,,,0.39,Custom v0.1,2013-05-10 01:40:00,
2013-05-09 20:45:00,62.0,60.8,29.76,SW,221,0.0,0.0,96,0.00,,,0.39,Custom v0.1,2013-05-10 01:45:00,
2013-05-09 20:50:00,61.8,60.6,29.77,SW,221,0.0,0.0,96,0.00,,,0.39,Custom v0.1,2013-05-10 01:50:00,
2013-05-09 20:55:00,61.8,60.6,29.77,SW,221,0.0,0.0,96,0.00,,,0.39,Custom v0.1,2013-05-10 01:55:00,
2013-05-09 21:00:00,61.6,60.4,29.77,SW,221,0.0,0.0,96,0.00,,,0.39,Custom v0.1,2013-05-10 02:00:00,
2013-05-09 21:05:00,61.6,60.4,29.77,SW,221,0.0,0.0,96,0.00,,,0.39,Custom v0.1,2013-05-10 02:05:00,
2013-05-09 21:10:00,61.6,60.4,29.77,SW,221,0.0,0.0,96,0.00,,,0.39,Custom v0.1,2013-05-10 02:10:00,
2013-05-09 21:15:00,61.5,60.3,29.77,SW,221,0.0,0.0,96,0.00,,,0.39,Custom v0.1,2013-05-10 02:15:00,
2013-05-09 21:20:00,61.5,60.3,29.78,SW,221,0.0,0.0,96,0.00,,,0.39,Custom v0.1,2013-05-10 02:20:00,
2013-05-09 21:25:00,61.5,60.3,29.78,SW,221,0.0,0.0,96,0.00,,,0.39,Custom v0.1,2013-05-10 02:25:00,
2013-05-09 21:30:00,61.5,60.3,29.78,SW,221,0.0,0.0,96,0.00,,,0.39,Custom v0.1,2013-05-10 02:30:00,
2013-05-09 21:35:00,61.3,60.1,29.78,SW,221,0.0,0.0,96,0.00,,,0.39,Custom v0.1,2013-05-10 02:35:00,
2013-05-09 21:40:00,61.2,60.0,29.78,SW,221,0.0,0.0,96,0.00,,,0.39,Custom v0.1,2013-05-10 02:40:00,
2013-05-09 21:45:00,60.9,59.7,29.78,SW,221,0.0,0.0,96,0.00,,,0.39,Custom v0.1,2013-05-10 02:45:00,
2013-05-09 21:50:00,60.7,59.5,29.79,SW,221,0.0,0.0,96,0.00,,,0.39,Custom v0.1,2013-05-10 02:50:00,
2013-05-09 21:55:00,60.7,59.8,29.79,SW,221,0.0,0.0,97,0.00,,,0.39,Custom v0.1,2013-05-10 02:55:00,
2013-05-09 22:00:00,60.7,59.8,29.79,SW,221,0.0,0.0,97,0.00,,,0.39,Custom v0.1,2013-05-10 03:00:00,
2013-05-09 22:05:00,60.5,59.6,29.79,SW,221,0.0,0.0,97,0.00,,,0.39,Custom v0.1,2013-05-10 03:05:00,
2013-05-09 22:10:00,60.5,59.6,29.79,SW,221,0.0,0.0,97,0.00,,,0.39,Custom v0.1,2013-05-10 03:10:00,
2013-05-09 22:15:00,60.4,59.5,29.79,SW,221,0.0,0.0,97,0.00,,,0.39,Custom v0.1,2013-05-10 03:15:00,
2013-05-09 22:20:00,60.2,59.3,29.79,SW,221,0.0,0.0,97,0.00,,,0.39,Custom v0.1,2013-05-10 03:20:00,
2013-05-09 22:25:00,60.1,59.2,29.79,SW,221,0.0,0.0,97,0.00,,,0.39,Custom v0.1,2013-05-10 03:25:00,
2013-05-09 22:35:00,59.8,58.9,29.79,SW,221,0.0,0.0,97,0.00,,,0.39,Custom v0.1,2013-05-10 03:35:00,
2013-05-09 22:40:00,59.8,58.9,29.79,SW,221,0.0,0.0,97,0.00,,,0.39,Custom v0.1,2013-05-10 03:40:00,
2013-05-09 22:45:00,59.8,58.9,29.79,SW,221,0.0,0.0,97,0.00,,,0.39,Custom v0.1,2013-05-10 03:45:00,
2013-05-09 22:50:00,59.6,58.7,29.80,SW,221,0.0,0.0,97,0.00,,,0.39,Custom v0.1,2013-05-10 03:50:00,
2013-05-09 22:55:00,59.5,58.6,29.80,SW,221,0.0,0.0,97,0.00,,,0.39,Custom v0.1,2013-05-10 03:55:00,
2013-05-09 23:00:00,59.3,58.4,29.80,SW,221,0.0,0.0,97,0.00,,,0.39,Custom v0.1,2013-05-10 04:00:00,
2013-05-09 23:05:00,59.3,58.4,29.80,SW,221,0.0,0.0,97,0.00,,,0.39,Custom v0.1,2013-05-10 04:05:00,
2013-05-09 23:10:00,59.2,58.3,29.80,SW,221,0.0,0.0,97,0.00,,,0.39,Custom v0.1,2013-05-10 04:10:00,
2013-05-09 23:15:00,59.0,58.1,29.80,SW,221,0.0,0.0,97,0.00,,,0.39,Custom v0.1,2013-05-10 04:15:00,
2013-05-09 23:20:00,59.0,58.1,29.80,SW,221,0.0,0.0,97,0.00,,,0.39,Custom v0.1,2013-05-10 04:20:00,
2013-05-09 23:25:00,59.0,58.1,29.80,SW,221,0.0,0.0,97,0.00,,,0.39,Custom v0.1,2013-05-10 04:25:00,
2013-05-09 23:30:00,59.0,58.1,29.80,SW,221,0.0,0.0,97,0.00,,,0.39,Custom v0.1,2013-05-10 04:30:00,
2013-05-09 23:35:00,59.0,58.1,29.79,SW,221,0.0,0.0,97,0.00,,,0.39,Custom v0.1,2013-05-10 04:35:00,
2013-05-09 23:40:00,59.0,58.1,29.79,SW,221,0.0,0.0,97,0.00,,,0.39,Custom v0.1,2013-05-10 04:40:00,
2013-05-09 23:45:00,59.0,58.1,29.79,SW,221,0.0,0.0,97,0.00,,,0.39,Custom v0.1,2013-05-10 04:45:00,
2013-05-09 23:50:00,59.0,58.1,29.79,SW,221,0.0,0.0,97,0.00,,,0.39,Custom v0.1,2013-05-10 04:50:00,
2013-05-09 23:55:00,58.9,58.0,29.79,SW,221,0.0,0.0,97,0.00,,,0.39,Custom v0.1,2013-05-10 04:55:00,